sensor_id;sensor_type;location;lat;lon;timestamp;P1;durP1;ratioP1;P2;durP2;ratioP2
32838;SDS011;19182;41.820;12.808;2023-04-24T00:00:06;15.77;;;8.13;;
32838;SDS011;19182;41.820;12.808;2023-04-24T00:02:40;10.32;;;7.47;;
32838;SDS011;19182;41.820;12.808;2023-04-24T00:05:07;12.52;;;7.53;;
32838;SDS011;19182;41.820;12.808;2023-04-24T00:07:36;12.13;;;8.18;;
32838;SDS011;19182;41.820;12.808;2023-04-24T00:10:02;14.35;;;8.57;;
32838;SDS011;19182;41.820;12.808;2023-04-24T00:12:28;12.68;;;8.50;;
32838;SDS011;19182;41.820;12.808;2023-04-24T00:14:54;18.58;;;9.60;;
32838;SDS011;19182;41.820;12.808;2023-04-24T00:17:21;13.75;;;9.15;;
32838;SDS011;19182;41.820;12.808;2023-04-24T00:19:48;13.75;;;8.80;;
32838;SDS011;19182;41.820;12.808;2023-04-24T00:22:16;14.07;;;8.98;;
32838;SDS011;19182;41.820;12.808;2023-04-24T00:24:42;16.33;;;8.65;;
32838;SDS011;19182;41.820;12.808;2023-04-24T00:27:08;14.52;;;8.60;;
32838;SDS011;19182;41.820;12.808;2023-04-24T00:29:34;13.50;;;8.73;;
32838;SDS011;19182;41.820;12.808;2023-04-24T00:32:00;13.52;;;8.65;;
32838;SDS011;19182;41.820;12.808;2023-04-24T00:34:26;15.43;;;8.90;;
32838;SDS011;19182;41.820;12.808;2023-04-24T00:36:52;15.50;;;9.00;;
32838;SDS011;19182;41.820;12.808;2023-04-24T00:39:19;15.55;;;9.60;;
32838;SDS011;19182;41.820;12.808;2023-04-24T00:41:45;16.77;;;9.95;;
32838;SDS011;19182;41.820;12.808;2023-04-24T00:44:13;16.20;;;9.27;;
32838;SDS011;19182;41.820;12.808;2023-04-24T00:46:39;17.15;;;9.82;;
32838;SDS011;19182;41.820;12.808;2023-04-24T00:49:05;16.70;;;9.88;;
32838;SDS011;19182;41.820;12.808;2023-04-24T00:51:32;16.77;;;10.60;;
32838;SDS011;19182;41.820;12.808;2023-04-24T00:53:59;16.40;;;11.13;;
32838;SDS011;19182;41.820;12.808;2023-04-24T00:56:26;15.48;;;10.98;;
32838;SDS011;19182;41.820;12.808;2023-04-24T00:58:52;17.75;;;10.35;;
32838;SDS011;19182;41.820;12.808;2023-04-24T01:01:21;21.23;;;11.73;;
32838;SDS011;19182;41.820;12.808;2023-04-24T01:03:49;21.70;;;11.55;;
32838;SDS011;19182;41.820;12.808;2023-04-24T01:06:15;22.27;;;13.27;;
32838;SDS011;19182;41.820;12.808;2023-04-24T01:08:41;24.50;;;12.32;;
32838;SDS011;19182;41.820;12.808;2023-04-24T01:11:08;24.95;;;11.55;;
32838;SDS011;19182;41.820;12.808;2023-04-24T01:13:35;22.42;;;11.85;;
32838;SDS011;19182;41.820;12.808;2023-04-24T01:16:00;16.58;;;11.60;;
32838;SDS011;19182;41.820;12.808;2023-04-24T01:18:27;19.88;;;12.18;;
32838;SDS011;19182;41.820;12.808;2023-04-24T01:20:58;25.98;;;12.18;;
32838;SDS011;19182;41.820;12.808;2023-04-24T01:23:25;17.20;;;11.80;;
32838;SDS011;19182;41.820;12.808;2023-04-24T01:25:52;18.23;;;11.68;;
32838;SDS011;19182;41.820;12.808;2023-04-24T01:28:19;16.33;;;11.25;;
32838;SDS011;19182;41.820;12.808;2023-04-24T01:30:46;20.45;;;12.88;;
32838;SDS011;19182;41.820;12.808;2023-04-24T01:33:13;20.70;;;11.70;;
32838;SDS011;19182;41.820;12.808;2023-04-24T01:35:40;22.88;;;12.55;;
32838;SDS011;19182;41.820;12.808;2023-04-24T01:38:07;19.55;;;11.75;;
32838;SDS011;19182;41.820;12.808;2023-04-24T01:40:33;17.85;;;12.35;;
32838;SDS011;19182;41.820;12.808;2023-04-24T01:42:59;15.52;;;11.15;;
32838;SDS011;19182;41.820;12.808;2023-04-24T01:45:25;17.50;;;12.55;;
32838;SDS011;19182;41.820;12.808;2023-04-24T01:47:51;22.45;;;12.13;;
32838;SDS011;19182;41.820;12.808;2023-04-24T01:50:17;20.98;;;12.90;;
32838;SDS011;19182;41.820;12.808;2023-04-24T01:52:43;18.38;;;12.63;;
32838;SDS011;19182;41.820;12.808;2023-04-24T01:55:09;21.33;;;12.63;;
32838;SDS011;19182;41.820;12.808;2023-04-24T01:57:35;21.98;;;12.68;;
32838;SDS011;19182;41.820;12.808;2023-04-24T02:00:01;21.85;;;11.77;;
32838;SDS011;19182;41.820;12.808;2023-04-24T02:02:29;19.02;;;12.63;;
32838;SDS011;19182;41.820;12.808;2023-04-24T02:04:55;20.58;;;12.52;;
32838;SDS011;19182;41.820;12.808;2023-04-24T02:07:21;18.88;;;13.18;;
32838;SDS011;19182;41.820;12.808;2023-04-24T02:09:47;22.67;;;12.88;;
32838;SDS011;19182;41.820;12.808;2023-04-24T02:12:15;22.00;;;13.13;;
32838;SDS011;19182;41.820;12.808;2023-04-24T02:14:42;20.38;;;13.43;;
32838;SDS011;19182;41.820;12.808;2023-04-24T02:17:08;18.23;;;12.27;;
32838;SDS011;19182;41.820;12.808;2023-04-24T02:19:34;24.02;;;14.02;;
32838;SDS011;19182;41.820;12.808;2023-04-24T02:22:01;21.80;;;14.05;;
32838;SDS011;19182;41.820;12.808;2023-04-24T02:24:28;20.10;;;12.70;;
32838;SDS011;19182;41.820;12.808;2023-04-24T02:26:55;24.48;;;14.18;;
32838;SDS011;19182;41.820;12.808;2023-04-24T02:29:20;18.23;;;12.50;;
32838;SDS011;19182;41.820;12.808;2023-04-24T02:31:46;21.73;;;13.35;;
32838;SDS011;19182;41.820;12.808;2023-04-24T02:34:12;18.92;;;13.30;;
32838;SDS011;19182;41.820;12.808;2023-04-24T02:36:38;25.52;;;12.95;;
32838;SDS011;19182;41.820;12.808;2023-04-24T02:39:04;21.55;;;13.10;;
32838;SDS011;19182;41.820;12.808;2023-04-24T02:41:31;22.52;;;13.70;;
32838;SDS011;19182;41.820;12.808;2023-04-24T02:43:58;17.90;;;12.50;;
32838;SDS011;19182;41.820;12.808;2023-04-24T02:46:24;18.77;;;13.32;;
32838;SDS011;19182;41.820;12.808;2023-04-24T02:48:51;21.92;;;14.18;;
32838;SDS011;19182;41.820;12.808;2023-04-24T02:51:17;21.33;;;12.10;;
32838;SDS011;19182;41.820;12.808;2023-04-24T02:53:44;20.65;;;12.07;;
32838;SDS011;19182;41.820;12.808;2023-04-24T02:56:10;17.52;;;11.88;;
32838;SDS011;19182;41.820;12.808;2023-04-24T02:58:37;17.98;;;11.50;;
32838;SDS011;19182;41.820;12.808;2023-04-24T03:01:03;18.55;;;11.00;;
32838;SDS011;19182;41.820;12.808;2023-04-24T03:03:29;17.30;;;9.50;;
32838;SDS011;19182;41.820;12.808;2023-04-24T03:05:55;14.23;;;9.65;;
32838;SDS011;19182;41.820;12.808;2023-04-24T03:08:22;14.48;;;8.00;;
32838;SDS011;19182;41.820;12.808;2023-04-24T03:10:48;17.55;;;9.77;;
32838;SDS011;19182;41.820;12.808;2023-04-24T03:13:15;13.60;;;8.23;;
32838;SDS011;19182;41.820;12.808;2023-04-24T03:15:41;14.50;;;8.18;;
32838;SDS011;19182;41.820;12.808;2023-04-24T03:18:07;15.45;;;6.55;;
32838;SDS011;19182;41.820;12.808;2023-04-24T03:20:33;17.80;;;7.28;;
32838;SDS011;19182;41.820;12.808;2023-04-24T03:22:58;16.10;;;7.78;;
32838;SDS011;19182;41.820;12.808;2023-04-24T03:25:25;18.17;;;7.03;;
32838;SDS011;19182;41.820;12.808;2023-04-24T03:27:51;17.35;;;7.18;;
32838;SDS011;19182;41.820;12.808;2023-04-24T03:30:16;10.70;;;6.65;;
32838;SDS011;19182;41.820;12.808;2023-04-24T03:32:42;9.27;;;5.75;;
32838;SDS011;19182;41.820;12.808;2023-04-24T03:35:08;10.77;;;6.53;;
32838;SDS011;19182;41.820;12.808;2023-04-24T03:37:35;12.40;;;5.97;;
32838;SDS011;19182;41.820;12.808;2023-04-24T03:40:01;13.18;;;6.88;;
32838;SDS011;19182;41.820;12.808;2023-04-24T03:42:27;11.95;;;6.95;;
32838;SDS011;19182;41.820;12.808;2023-04-24T03:44:53;13.07;;;6.65;;
32838;SDS011;19182;41.820;12.808;2023-04-24T03:47:19;14.18;;;8.73;;
32838;SDS011;19182;41.820;12.808;2023-04-24T03:49:45;18.92;;;10.00;;
32838;SDS011;19182;41.820;12.808;2023-04-24T03:52:10;16.02;;;10.65;;
32838;SDS011;19182;41.820;12.808;2023-04-24T03:54:37;19.60;;;10.68;;
32838;SDS011;19182;41.820;12.808;2023-04-24T03:57:03;15.05;;;9.77;;
32838;SDS011;19182;41.820;12.808;2023-04-24T03:59:29;15.38;;;10.50;;
32838;SDS011;19182;41.820;12.808;2023-04-24T04:01:55;21.45;;;11.23;;
32838;SDS011;19182;41.820;12.808;2023-04-24T04:04:22;18.80;;;11.30;;
32838;SDS011;19182;41.820;12.808;2023-04-24T04:06:48;17.60;;;11.13;;
32838;SDS011;19182;41.820;12.808;2023-04-24T04:09:14;25.52;;;13.98;;
32838;SDS011;19182;41.820;12.808;2023-04-24T04:11:40;19.20;;;13.02;;
32838;SDS011;19182;41.820;12.808;2023-04-24T04:14:07;48.80;;;25.75;;
32838;SDS011;19182;41.820;12.808;2023-04-24T04:16:33;35.83;;;19.15;;
32838;SDS011;19182;41.820;12.808;2023-04-24T04:19:01;89.43;;;45.05;;
32838;SDS011;19182;41.820;12.808;2023-04-24T04:21:27;88.65;;;44.50;;
32838;SDS011;19182;41.820;12.808;2023-04-24T04:23:53;185.25;;;90.35;;
32838;SDS011;19182;41.820;12.808;2023-04-24T04:26:19;151.88;;;74.25;;
32838;SDS011;19182;41.820;12.808;2023-04-24T04:28:46;234.18;;;110.25;;
32838;SDS011;19182;41.820;12.808;2023-04-24T04:31:12;125.85;;;66.35;;
32838;SDS011;19182;41.820;12.808;2023-04-24T04:33:39;65.88;;;38.70;;
32838;SDS011;19182;41.820;12.808;2023-04-24T04:36:06;50.00;;;29.90;;
32838;SDS011;19182;41.820;12.808;2023-04-24T04:38:33;63.00;;;31.42;;
32838;SDS011;19182;41.820;12.808;2023-04-24T04:41:00;61.05;;;31.67;;
32838;SDS011;19182;41.820;12.808;2023-04-24T04:43:25;39.33;;;24.48;;
32838;SDS011;19182;41.820;12.808;2023-04-24T04:45:53;42.75;;;23.75;;
32838;SDS011;19182;41.820;12.808;2023-04-24T04:48:19;39.15;;;23.88;;
32838;SDS011;19182;41.820;12.808;2023-04-24T04:50:45;54.00;;;29.75;;
32838;SDS011;19182;41.820;12.808;2023-04-24T04:53:12;34.60;;;20.73;;
32838;SDS011;19182;41.820;12.808;2023-04-24T04:55:37;37.17;;;22.38;;
32838;SDS011;19182;41.820;12.808;2023-04-24T04:58:03;39.03;;;24.85;;
32838;SDS011;19182;41.820;12.808;2023-04-24T05:00:29;38.38;;;22.23;;
32838;SDS011;19182;41.820;12.808;2023-04-24T05:03:00;39.50;;;25.02;;
32838;SDS011;19182;41.820;12.808;2023-04-24T05:05:27;42.83;;;25.30;;
32838;SDS011;19182;41.820;12.808;2023-04-24T05:07:53;33.75;;;21.65;;
32838;SDS011;19182;41.820;12.808;2023-04-24T05:10:19;35.72;;;22.23;;
32838;SDS011;19182;41.820;12.808;2023-04-24T05:12:46;38.50;;;23.48;;
32838;SDS011;19182;41.820;12.808;2023-04-24T05:15:12;48.80;;;28.40;;
32838;SDS011;19182;41.820;12.808;2023-04-24T05:17:37;32.38;;;20.85;;
32838;SDS011;19182;41.820;12.808;2023-04-24T05:20:05;35.63;;;21.13;;
32838;SDS011;19182;41.820;12.808;2023-04-24T05:22:32;33.42;;;20.85;;
32838;SDS011;19182;41.820;12.808;2023-04-24T05:24:57;27.83;;;18.63;;
32838;SDS011;19182;41.820;12.808;2023-04-24T05:27:25;27.67;;;18.17;;
32838;SDS011;19182;41.820;12.808;2023-04-24T05:29:52;23.10;;;14.90;;
32838;SDS011;19182;41.820;12.808;2023-04-24T05:32:18;21.00;;;14.20;;
32838;SDS011;19182;41.820;12.808;2023-04-24T05:34:43;21.92;;;15.00;;
32838;SDS011;19182;41.820;12.808;2023-04-24T05:37:09;19.42;;;14.00;;
32838;SDS011;19182;41.820;12.808;2023-04-24T05:39:35;22.65;;;13.70;;
32838;SDS011;19182;41.820;12.808;2023-04-24T05:42:03;20.27;;;13.98;;
32838;SDS011;19182;41.820;12.808;2023-04-24T05:44:29;21.40;;;14.23;;
32838;SDS011;19182;41.820;12.808;2023-04-24T05:46:56;20.23;;;13.82;;
32838;SDS011;19182;41.820;12.808;2023-04-24T05:49:22;23.90;;;13.40;;
32838;SDS011;19182;41.820;12.808;2023-04-24T05:51:48;21.27;;;13.35;;
32838;SDS011;19182;41.820;12.808;2023-04-24T05:54:14;22.20;;;12.65;;
32838;SDS011;19182;41.820;12.808;2023-04-24T05:56:40;21.42;;;12.95;;
32838;SDS011;19182;41.820;12.808;2023-04-24T05:59:06;25.27;;;13.70;;
32838;SDS011;19182;41.820;12.808;2023-04-24T06:01:34;19.85;;;12.77;;
32838;SDS011;19182;41.820;12.808;2023-04-24T06:04:01;20.80;;;13.38;;
32838;SDS011;19182;41.820;12.808;2023-04-24T06:06:28;18.45;;;13.75;;
32838;SDS011;19182;41.820;12.808;2023-04-24T06:08:54;51.20;;;33.25;;
32838;SDS011;19182;41.820;12.808;2023-04-24T06:11:20;32.85;;;20.48;;
32838;SDS011;19182;41.820;12.808;2023-04-24T06:13:47;22.85;;;13.75;;
32838;SDS011;19182;41.820;12.808;2023-04-24T06:16:15;28.42;;;18.58;;
32838;SDS011;19182;41.820;12.808;2023-04-24T06:18:41;30.50;;;18.80;;
32838;SDS011;19182;41.820;12.808;2023-04-24T06:21:06;26.17;;;15.95;;
32838;SDS011;19182;41.820;12.808;2023-04-24T06:23:33;24.40;;;14.50;;
32838;SDS011;19182;41.820;12.808;2023-04-24T06:25:59;24.48;;;15.18;;
32838;SDS011;19182;41.820;12.808;2023-04-24T06:28:26;30.35;;;19.88;;
32838;SDS011;19182;41.820;12.808;2023-04-24T06:30:51;30.63;;;19.60;;
32838;SDS011;19182;41.820;12.808;2023-04-24T06:33:17;19.85;;;13.60;;
32838;SDS011;19182;41.820;12.808;2023-04-24T06:35:43;15.57;;;11.43;;
32838;SDS011;19182;41.820;12.808;2023-04-24T06:38:08;20.30;;;12.07;;
32838;SDS011;19182;41.820;12.808;2023-04-24T06:40:34;18.65;;;12.88;;
32838;SDS011;19182;41.820;12.808;2023-04-24T06:43:00;23.63;;;12.98;;
32838;SDS011;19182;41.820;12.808;2023-04-24T06:45:28;18.27;;;11.90;;
32838;SDS011;19182;41.820;12.808;2023-04-24T06:47:54;21.30;;;12.45;;
32838;SDS011;19182;41.820;12.808;2023-04-24T06:50:20;17.65;;;12.32;;
32838;SDS011;19182;41.820;12.808;2023-04-24T06:52:45;18.48;;;12.00;;
32838;SDS011;19182;41.820;12.808;2023-04-24T06:55:11;15.68;;;11.25;;
32838;SDS011;19182;41.820;12.808;2023-04-24T06:57:37;15.00;;;10.90;;
32838;SDS011;19182;41.820;12.808;2023-04-24T07:00:04;20.98;;;11.77;;
32838;SDS011;19182;41.820;12.808;2023-04-24T07:02:32;16.83;;;10.77;;
32838;SDS011;19182;41.820;12.808;2023-04-24T07:04:58;16.67;;;10.77;;
32838;SDS011;19182;41.820;12.808;2023-04-24T07:07:26;19.45;;;11.63;;
32838;SDS011;19182;41.820;12.808;2023-04-24T07:09:52;18.17;;;9.48;;
32838;SDS011;19182;41.820;12.808;2023-04-24T07:12:19;16.85;;;10.75;;
32838;SDS011;19182;41.820;12.808;2023-04-24T07:14:46;16.67;;;10.20;;
32838;SDS011;19182;41.820;12.808;2023-04-24T07:17:15;12.43;;;9.52;;
32838;SDS011;19182;41.820;12.808;2023-04-24T07:19:41;18.95;;;10.60;;
32838;SDS011;19182;41.820;12.808;2023-04-24T07:22:06;13.20;;;9.23;;
32838;SDS011;19182;41.820;12.808;2023-04-24T07:24:32;16.70;;;9.95;;
32838;SDS011;19182;41.820;12.808;2023-04-24T07:26:58;13.93;;;9.27;;
32838;SDS011;19182;41.820;12.808;2023-04-24T07:29:24;14.98;;;9.23;;
32838;SDS011;19182;41.820;12.808;2023-04-24T07:31:50;16.98;;;9.02;;
32838;SDS011;19182;41.820;12.808;2023-04-24T07:34:16;15.65;;;7.85;;
32838;SDS011;19182;41.820;12.808;2023-04-24T07:36:41;16.10;;;8.43;;
32838;SDS011;19182;41.820;12.808;2023-04-24T07:39:07;15.77;;;8.60;;
32838;SDS011;19182;41.820;12.808;2023-04-24T07:41:33;13.75;;;8.55;;
32838;SDS011;19182;41.820;12.808;2023-04-24T07:44:01;15.75;;;8.32;;
32838;SDS011;19182;41.820;12.808;2023-04-24T07:46:26;17.15;;;9.18;;
32838;SDS011;19182;41.820;12.808;2023-04-24T07:48:55;18.25;;;8.05;;
32838;SDS011;19182;41.820;12.808;2023-04-24T07:51:21;11.50;;;7.72;;
32838;SDS011;19182;41.820;12.808;2023-04-24T07:53:47;12.77;;;7.55;;
32838;SDS011;19182;41.820;12.808;2023-04-24T07:56:14;13.20;;;7.38;;
32838;SDS011;19182;41.820;12.808;2023-04-24T07:58:42;15.05;;;7.40;;
32838;SDS011;19182;41.820;12.808;2023-04-24T08:01:07;13.95;;;8.48;;
32838;SDS011;19182;41.820;12.808;2023-04-24T08:03:34;12.20;;;8.32;;
32838;SDS011;19182;41.820;12.808;2023-04-24T08:06:01;14.68;;;7.05;;
32838;SDS011;19182;41.820;12.808;2023-04-24T08:08:27;10.93;;;7.07;;
32838;SDS011;19182;41.820;12.808;2023-04-24T08:10:54;17.08;;;7.13;;
32838;SDS011;19182;41.820;12.808;2023-04-24T08:13:20;10.68;;;6.30;;
32838;SDS011;19182;41.820;12.808;2023-04-24T08:15:47;12.43;;;5.90;;
32838;SDS011;19182;41.820;12.808;2023-04-24T08:18:14;12.82;;;6.65;;
32838;SDS011;19182;41.820;12.808;2023-04-24T08:20:40;11.35;;;6.10;;
32838;SDS011;19182;41.820;12.808;2023-04-24T08:23:06;16.25;;;6.38;;
32838;SDS011;19182;41.820;12.808;2023-04-24T08:25:32;13.15;;;7.18;;
32838;SDS011;19182;41.820;12.808;2023-04-24T08:28:00;16.50;;;9.77;;
32838;SDS011;19182;41.820;12.808;2023-04-24T08:30:26;15.93;;;6.80;;
32838;SDS011;19182;41.820;12.808;2023-04-24T08:32:52;27.02;;;14.85;;
32838;SDS011;19182;41.820;12.808;2023-04-24T08:35:18;26.35;;;12.65;;
32838;SDS011;19182;41.820;12.808;2023-04-24T08:37:44;16.75;;;10.70;;
32838;SDS011;19182;41.820;12.808;2023-04-24T08:40:12;16.05;;;7.57;;
32838;SDS011;19182;41.820;12.808;2023-04-24T08:42:43;18.33;;;8.10;;
32838;SDS011;19182;41.820;12.808;2023-04-24T08:45:10;14.05;;;6.53;;
32838;SDS011;19182;41.820;12.808;2023-04-24T08:47:37;14.52;;;5.43;;
32838;SDS011;19182;41.820;12.808;2023-04-24T08:50:04;14.27;;;6.50;;
32838;SDS011;19182;41.820;12.808;2023-04-24T08:52:33;15.60;;;5.25;;
32838;SDS011;19182;41.820;12.808;2023-04-24T08:55:02;17.30;;;4.25;;
32838;SDS011;19182;41.820;12.808;2023-04-24T08:57:29;13.13;;;4.95;;
32838;SDS011;19182;41.820;12.808;2023-04-24T08:59:56;18.60;;;4.57;;
32838;SDS011;19182;41.820;12.808;2023-04-24T09:02:23;17.35;;;5.63;;
32838;SDS011;19182;41.820;12.808;2023-04-24T09:04:49;15.05;;;5.13;;
32838;SDS011;19182;41.820;12.808;2023-04-24T09:07:16;15.90;;;5.47;;
32838;SDS011;19182;41.820;12.808;2023-04-24T09:09:44;14.23;;;5.20;;
32838;SDS011;19182;41.820;12.808;2023-04-24T09:12:10;12.00;;;4.38;;
32838;SDS011;19182;41.820;12.808;2023-04-24T09:14:37;12.90;;;3.28;;
32838;SDS011;19182;41.820;12.808;2023-04-24T09:17:07;10.23;;;3.60;;
32838;SDS011;19182;41.820;12.808;2023-04-24T09:19:33;12.20;;;4.60;;
32838;SDS011;19182;41.820;12.808;2023-04-24T09:21:59;9.50;;;4.00;;
32838;SDS011;19182;41.820;12.808;2023-04-24T09:24:29;15.57;;;3.97;;
32838;SDS011;19182;41.820;12.808;2023-04-24T09:26:56;13.90;;;3.60;;
32838;SDS011;19182;41.820;12.808;2023-04-24T09:29:23;13.20;;;3.58;;
32838;SDS011;19182;41.820;12.808;2023-04-24T09:31:50;12.10;;;3.42;;
32838;SDS011;19182;41.820;12.808;2023-04-24T09:34:20;13.10;;;3.30;;
32838;SDS011;19182;41.820;12.808;2023-04-24T09:36:53;9.32;;;3.13;;
32838;SDS011;19182;41.820;12.808;2023-04-24T09:39:21;9.80;;;2.60;;
32838;SDS011;19182;41.820;12.808;2023-04-24T09:44:17;12.75;;;3.05;;
32838;SDS011;19182;41.820;12.808;2023-04-24T09:49:24;12.93;;;3.38;;
32838;SDS011;19182;41.820;12.808;2023-04-24T09:52:08;15.30;;;4.03;;
32838;SDS011;19182;41.820;12.808;2023-04-24T09:54:35;12.82;;;3.60;;
32838;SDS011;19182;41.820;12.808;2023-04-24T09:57:01;12.95;;;3.92;;
32838;SDS011;19182;41.820;12.808;2023-04-24T09:59:33;17.05;;;3.55;;
32838;SDS011;19182;41.820;12.808;2023-04-24T10:02:00;13.57;;;3.35;;
32838;SDS011;19182;41.820;12.808;2023-04-24T10:04:28;12.75;;;3.20;;
32838;SDS011;19182;41.820;12.808;2023-04-24T10:06:54;10.90;;;2.80;;
32838;SDS011;19182;41.820;12.808;2023-04-24T10:09:22;12.32;;;3.28;;
32838;SDS011;19182;41.820;12.808;2023-04-24T10:11:51;12.68;;;3.65;;
32838;SDS011;19182;41.820;12.808;2023-04-24T10:14:22;12.45;;;2.80;;
32838;SDS011;19182;41.820;12.808;2023-04-24T10:16:51;13.50;;;3.28;;
32838;SDS011;19182;41.820;12.808;2023-04-24T10:19:19;11.82;;;3.45;;
32838;SDS011;19182;41.820;12.808;2023-04-24T10:21:46;14.52;;;3.83;;
32838;SDS011;19182;41.820;12.808;2023-04-24T10:24:13;19.40;;;3.60;;
32838;SDS011;19182;41.820;12.808;2023-04-24T10:26:40;9.27;;;2.65;;
32838;SDS011;19182;41.820;12.808;2023-04-24T10:29:06;11.20;;;3.10;;
32838;SDS011;19182;41.820;12.808;2023-04-24T10:31:37;16.50;;;3.42;;
32838;SDS011;19182;41.820;12.808;2023-04-24T10:34:04;10.15;;;2.40;;
32838;SDS011;19182;41.820;12.808;2023-04-24T10:36:31;12.43;;;2.70;;
32838;SDS011;19182;41.820;12.808;2023-04-24T10:39:00;8.93;;;3.80;;
32838;SDS011;19182;41.820;12.808;2023-04-24T10:41:29;16.52;;;4.65;;
32838;SDS011;19182;41.820;12.808;2023-04-24T10:44:05;15.05;;;3.83;;
32838;SDS011;19182;41.820;12.808;2023-04-24T10:46:39;11.50;;;3.42;;
32838;SDS011;19182;41.820;12.808;2023-04-24T10:49:08;16.10;;;3.92;;
32838;SDS011;19182;41.820;12.808;2023-04-24T10:54:22;8.30;;;3.72;;
32838;SDS011;19182;41.820;12.808;2023-04-24T10:56:52;8.52;;;2.47;;
32838;SDS011;19182;41.820;12.808;2023-04-24T10:59:38;17.05;;;7.93;;
32838;SDS011;19182;41.820;12.808;2023-04-24T11:02:06;10.63;;;3.45;;
32838;SDS011;19182;41.820;12.808;2023-04-24T11:04:33;13.57;;;3.38;;
32838;SDS011;19182;41.820;12.808;2023-04-24T11:07:00;12.35;;;3.28;;
32838;SDS011;19182;41.820;12.808;2023-04-24T11:09:26;14.40;;;3.72;;
32838;SDS011;19182;41.820;12.808;2023-04-24T11:12:06;13.48;;;3.25;;
32838;SDS011;19182;41.820;12.808;2023-04-24T11:17:29;17.73;;;5.22;;
32838;SDS011;19182;41.820;12.808;2023-04-24T11:22:29;14.65;;;4.38;;
32838;SDS011;19182;41.820;12.808;2023-04-24T11:25:03;17.77;;;6.25;;
32838;SDS011;19182;41.820;12.808;2023-04-24T11:27:38;16.83;;;4.05;;
32838;SDS011;19182;41.820;12.808;2023-04-24T11:30:06;13.32;;;3.88;;
32838;SDS011;19182;41.820;12.808;2023-04-24T11:35:17;13.20;;;2.85;;
32838;SDS011;19182;41.820;12.808;2023-04-24T11:37:49;15.07;;;3.67;;
32838;SDS011;19182;41.820;12.808;2023-04-24T11:40:18;13.63;;;2.65;;
32838;SDS011;19182;41.820;12.808;2023-04-24T11:42:48;12.27;;;2.80;;
32838;SDS011;19182;41.820;12.808;2023-04-24T11:45:15;13.35;;;3.35;;
32838;SDS011;19182;41.820;12.808;2023-04-24T11:47:42;12.38;;;2.97;;
32838;SDS011;19182;41.820;12.808;2023-04-24T11:50:11;12.98;;;3.25;;
32838;SDS011;19182;41.820;12.808;2023-04-24T11:52:40;10.07;;;2.88;;
32838;SDS011;19182;41.820;12.808;2023-04-24T11:55:08;10.13;;;2.50;;
32838;SDS011;19182;41.820;12.808;2023-04-24T11:57:44;11.18;;;2.65;;
32838;SDS011;19182;41.820;12.808;2023-04-24T12:00:35;11.82;;;2.75;;
32838;SDS011;19182;41.820;12.808;2023-04-24T12:03:10;19.10;;;3.58;;
32838;SDS011;19182;41.820;12.808;2023-04-24T12:05:38;12.45;;;3.03;;
32838;SDS011;19182;41.820;12.808;2023-04-24T12:08:04;5.38;;;2.15;;
32838;SDS011;19182;41.820;12.808;2023-04-24T12:10:31;11.00;;;2.55;;
32838;SDS011;19182;41.820;12.808;2023-04-24T12:12:58;11.32;;;2.88;;
32838;SDS011;19182;41.820;12.808;2023-04-24T12:15:25;7.53;;;2.28;;
32838;SDS011;19182;41.820;12.808;2023-04-24T12:17:52;9.98;;;2.25;;
32838;SDS011;19182;41.820;12.808;2023-04-24T12:20:23;23.90;;;10.07;;
32838;SDS011;19182;41.820;12.808;2023-04-24T12:22:59;18.52;;;6.63;;
32838;SDS011;19182;41.820;12.808;2023-04-24T12:25:29;12.02;;;3.10;;
32838;SDS011;19182;41.820;12.808;2023-04-24T12:30:33;9.63;;;2.60;;
32838;SDS011;19182;41.820;12.808;2023-04-24T12:33:01;11.15;;;3.47;;
32838;SDS011;19182;41.820;12.808;2023-04-24T12:35:29;9.88;;;2.97;;
32838;SDS011;19182;41.820;12.808;2023-04-24T12:38:05;9.55;;;2.88;;
32838;SDS011;19182;41.820;12.808;2023-04-24T12:40:32;11.15;;;2.33;;
32838;SDS011;19182;41.820;12.808;2023-04-24T12:42:58;7.45;;;1.90;;
32838;SDS011;19182;41.820;12.808;2023-04-24T12:45:26;17.73;;;3.20;;
32838;SDS011;19182;41.820;12.808;2023-04-24T12:47:53;7.95;;;2.20;;
32838;SDS011;19182;41.820;12.808;2023-04-24T12:50:19;5.60;;;1.75;;
32838;SDS011;19182;41.820;12.808;2023-04-24T12:52:46;8.80;;;2.30;;
32838;SDS011;19182;41.820;12.808;2023-04-24T12:55:12;9.38;;;1.88;;
32838;SDS011;19182;41.820;12.808;2023-04-24T12:57:39;12.15;;;1.98;;
32838;SDS011;19182;41.820;12.808;2023-04-24T13:00:06;6.97;;;2.15;;
32838;SDS011;19182;41.820;12.808;2023-04-24T13:02:34;9.23;;;2.50;;
32838;SDS011;19182;41.820;12.808;2023-04-24T13:05:00;10.73;;;2.35;;
32838;SDS011;19182;41.820;12.808;2023-04-24T13:07:26;12.70;;;2.97;;
32838;SDS011;19182;41.820;12.808;2023-04-24T13:09:52;9.23;;;2.10;;
32838;SDS011;19182;41.820;12.808;2023-04-24T13:12:19;12.05;;;2.60;;
32838;SDS011;19182;41.820;12.808;2023-04-24T13:14:45;18.08;;;3.88;;
32838;SDS011;19182;41.820;12.808;2023-04-24T13:17:11;8.63;;;2.45;;
32838;SDS011;19182;41.820;12.808;2023-04-24T13:19:41;13.50;;;4.15;;
32838;SDS011;19182;41.820;12.808;2023-04-24T13:24:35;10.77;;;2.50;;
32838;SDS011;19182;41.820;12.808;2023-04-24T13:27:04;8.75;;;2.63;;
32838;SDS011;19182;41.820;12.808;2023-04-24T13:29:30;9.38;;;2.60;;
32838;SDS011;19182;41.820;12.808;2023-04-24T13:31:55;16.63;;;5.05;;
32838;SDS011;19182;41.820;12.808;2023-04-24T13:34:22;13.13;;;2.50;;
32838;SDS011;19182;41.820;12.808;2023-04-24T13:36:53;10.02;;;2.25;;
32838;SDS011;19182;41.820;12.808;2023-04-24T13:39:21;12.07;;;2.67;;
32838;SDS011;19182;41.820;12.808;2023-04-24T13:41:47;11.82;;;2.58;;
32838;SDS011;19182;41.820;12.808;2023-04-24T13:44:15;14.32;;;4.53;;
32838;SDS011;19182;41.820;12.808;2023-04-24T13:46:42;7.88;;;2.20;;
32838;SDS011;19182;41.820;12.808;2023-04-24T13:49:10;12.32;;;2.55;;
32838;SDS011;19182;41.820;12.808;2023-04-24T13:51:37;10.85;;;2.20;;
32838;SDS011;19182;41.820;12.808;2023-04-24T13:54:04;8.05;;;1.90;;
32838;SDS011;19182;41.820;12.808;2023-04-24T13:56:29;10.20;;;2.10;;
32838;SDS011;19182;41.820;12.808;2023-04-24T13:58:57;10.48;;;2.45;;
32838;SDS011;19182;41.820;12.808;2023-04-24T14:01:22;15.45;;;2.88;;
32838;SDS011;19182;41.820;12.808;2023-04-24T14:03:50;10.98;;;2.80;;
32838;SDS011;19182;41.820;12.808;2023-04-24T14:06:16;15.88;;;2.83;;
32838;SDS011;19182;41.820;12.808;2023-04-24T14:08:44;10.27;;;1.90;;
32838;SDS011;19182;41.820;12.808;2023-04-24T14:11:09;9.15;;;2.35;;
32838;SDS011;19182;41.820;12.808;2023-04-24T14:13:36;11.27;;;2.63;;
32838;SDS011;19182;41.820;12.808;2023-04-24T14:16:03;8.05;;;2.10;;
32838;SDS011;19182;41.820;12.808;2023-04-24T14:18:29;8.68;;;2.25;;
32838;SDS011;19182;41.820;12.808;2023-04-24T14:20:55;11.60;;;2.60;;
32838;SDS011;19182;41.820;12.808;2023-04-24T14:23:22;6.72;;;1.80;;
32838;SDS011;19182;41.820;12.808;2023-04-24T14:25:47;6.00;;;1.80;;
32838;SDS011;19182;41.820;12.808;2023-04-24T14:28:16;7.30;;;1.92;;
32838;SDS011;19182;41.820;12.808;2023-04-24T14:30:45;11.93;;;2.63;;
32838;SDS011;19182;41.820;12.808;2023-04-24T14:33:11;13.65;;;2.92;;
32838;SDS011;19182;41.820;12.808;2023-04-24T14:35:38;9.50;;;2.08;;
32838;SDS011;19182;41.820;12.808;2023-04-24T14:38:06;7.03;;;1.95;;